Delta Buck — WDF8798 — position and weather

sailwx.info

Track history (hours):
 
Tides and Currents Weather Stations Pressure Air Temp Water Temp Dewpoint Dewpoint Depression Visibility Wind Speed Wind Dir Waves Ship Positions

Delta Buck

Owner: Crosby Marine Transportation, Golden Meadow, LA. More information available from US FCC via Universal Licensing System and Coast Guard Vessel Documentation Center.

Last reported at 2018-May-18 05:32 UTC. Time now 2018-May-22 02:09 UTC.
Position N 29°34' W 090°31'.

Length 20 m.

Type: Towing. MMSI: 367498680.

Date/timePositionNaut miles runAvg speedWind from/ knotsBaromVisibWave heightAir tempDewpointWater temp
2018-May-18 05:32N 29°34' W 090°31'1 8.1
2018-May-18 05:27N 29°34' W 090°32'4 7.7
2018-May-18 05:00N 29°35' W 090°35'3 5.9
2018-May-18 04:25N 29°36' W 090°39'1 2.5
2018-May-18 04:00N 29°36' W 090°40'0 0.0
2018-May-18 03:30N 29°36' W 090°40'0 0.2
2018-May-18 03:00N 29°36' W 090°40'2 4.1
2018-May-18 02:27N 29°35' W 090°43'3 6.4
2018-May-18 02:00N 29°33' W 090°45'4 8.0
2018-May-18 01:30N 29°32' W 090°50'  
2018-May-14 23:22N 29°32' W 090°50'3 7.6
2018-May-14 23:00N 29°32' W 090°47'3 6.4
2018-May-14 22:31N 29°34' W 090°44'3 5.5
2018-May-14 22:01N 29°37' W 090°43'2 4.0
2018-May-14 21:30N 29°36' W 090°40'2 4.5
2018-May-14 21:00N 29°35' W 090°38'2 0.7
2018-May-14 18:11N 29°35' W 090°36'1 4.4
2018-May-14 18:00N 29°35' W 090°36'4 7.1
2018-May-14 17:30N 29°36' W 090°40'0 0.2
2018-May-14 17:00N 29°36' W 090°40'0 0.0
2018-May-14 16:30N 29°36' W 090°40'0 0.0
2018-May-14 15:57N 29°36' W 090°40'0 0.0
2018-May-14 15:30N 29°36' W 090°40'0 0.0
2018-May-14 15:00N 29°36' W 090°40'0 0.0
2018-May-14 14:30N 29°36' W 090°40'3 5.2
2018-May-14 14:00N 29°35' W 090°38'2 3.1
2018-May-14 13:30N 29°35' W 090°36'0 0.2
2018-May-14 13:00N 29°35' W 090°36'0 0.2
2018-May-14 12:30N 29°35' W 090°36'0 0.4
2018-May-14 11:46N 29°35' W 090°36'0 0.0
2018-May-14 11:20N 29°35' W 090°36'0 0.0
2018-May-14 10:58N 29°35' W 090°36'0 0.0
2018-May-14 10:28N 29°35' W 090°36'0 0.0
2018-May-14 10:00N 29°35' W 090°36'0 0.0
2018-May-14 09:29N 29°35' W 090°36'0 0.0
2018-May-14 09:00N 29°35' W 090°36'0 0.0
2018-May-14 06:48N 29°35' W 090°36'0 0.0
2018-May-14 06:27N 29°35' W 090°36'0 0.0
2018-May-14 05:58N 29°35' W 090°36'0 0.0
2018-May-14 05:30N 29°35' W 090°36'0 0.0
2018-May-14 04:58N 29°35' W 090°36'0 0.0
2018-May-14 04:12N 29°35' W 090°36'0 0.0
2018-May-14 00:53N 29°35' W 090°36'0 0.0
2018-May-13 21:15N 29°35' W 090°36'1 3.9
2018-May-13 21:00N 29°35' W 090°37'3 5.5
2018-May-13 20:27N 29°36' W 090°40'0 1.0
2018-May-13 20:00N 29°36' W 090°40'0 0.0
2018-May-13 19:30N 29°36' W 090°40'0 0.0
2018-May-13 19:00N 29°36' W 090°40'0 0.0
2018-May-13 18:30N 29°36' W 090°40'0 0.0
2018-May-13 17:57N 29°36' W 090°40'0 0.0
2018-May-13 17:30N 29°36' W 090°40'0 0.0
2018-May-13 17:00N 29°36' W 090°40'0 0.0
2018-May-13 16:30N 29°36' W 090°40'0 0.0
2018-May-13 16:00N 29°36' W 090°40'0 0.0
2018-May-13 15:30N 29°36' W 090°40'0 0.0
2018-May-13 15:00N 29°36' W 090°40'0 0.0
2018-May-13 14:30N 29°36' W 090°40'0 0.0
2018-May-13 14:00N 29°36' W 090°40'0 0.0
2018-May-13 13:30N 29°36' W 090°40'0 0.0
2018-May-13 13:00N 29°36' W 090°40'0 0.0
2018-May-13 12:18N 29°36' W 090°40'0 0.0
2018-May-13 12:00N 29°36' W 090°40'0 0.0
2018-May-13 11:30N 29°36' W 090°40'0 0.0
2018-May-13 11:00N 29°36' W 090°40'0 0.0
2018-May-13 10:30N 29°36' W 090°40'0 0.0
2018-May-13 10:00N 29°36' W 090°40'0 0.4
2018-May-13 09:30N 29°36' W 090°40'1 2.9
2018-May-13 09:00N 29°37' W 090°42'3 6.4
2018-May-13 08:30N 29°34' W 090°44'4 7.7
2018-May-13 08:00N 29°32' W 090°47'2 0.3
2018-May-13 01:03N 29°32' W 090°50'1 5.0
2018-May-13 00:49N 29°32' W 090°49'2 4.9
2018-May-13 00:28N 29°32' W 090°47'2 4.4
2018-May-13 00:00N 29°34' W 090°45'2 3.2
2018-May-12 23:30N 29°34' W 090°43'1 2.3
2018-May-12 23:00N 29°33' W 090°42'2 4.8
2018-May-12 22:30N 29°31' W 090°43'3 5.0
2018-May-12 21:58N 29°28' W 090°43'3 0.1
2018-May-11 13:37N 29°25' W 090°43'1 8.1
2018-May-11 13:30N 29°26' W 090°43'4 8.6
2018-May-11 13:00N 29°31' W 090°43'2 4.0
2018-May-11 12:28N 29°33' W 090°42'0 0.0
2018-May-11 11:58N 29°33' W 090°42'0 0.0
2018-May-11 11:28N 29°33' W 090°42'0 0.0
2018-May-11 10:58N 29°33' W 090°42'0 0.0
2018-May-11 10:28N 29°33' W 090°42'0 0.0
2018-May-11 09:58N 29°33' W 090°42'0 0.0
2018-May-11 09:25N 29°33' W 090°42'0 0.0
2018-May-11 08:58N 29°33' W 090°42'0 0.0
2018-May-11 08:25N 29°33' W 090°42'0 0.0
2018-May-11 07:58N 29°33' W 090°42'0 0.0
2018-May-11 07:28N 29°33' W 090°42'0 0.0
2018-May-11 06:58N 29°33' W 090°42'0 0.0
2018-May-11 06:28N 29°33' W 090°42'0 0.0
2018-May-11 05:55N 29°33' W 090°42'0 0.0
2018-May-11 05:28N 29°33' W 090°42'0 0.0
2018-May-11 04:58N 29°33' W 090°42'0 0.0
2018-May-11 04:28N 29°33' W 090°42'0 0.0
2018-May-11 03:58N 29°33' W 090°42'0 0.0
2018-May-11 03:28N 29°33' W 090°42'0 0.0
2018-May-11 02:58N 29°33' W 090°42'0 0.0
2018-May-11 02:28N 29°33' W 090°42'0 0.0
2018-May-11 01:58N 29°33' W 090°42'0 0.0
2018-May-11 01:28N 29°33' W 090°42'0 0.0
2018-May-11 00:58N 29°33' W 090°42'0 0.0
2018-May-11 00:28N 29°33' W 090°42'0 0.0
2018-May-10 23:58N 29°33' W 090°42'0 0.0
2018-May-10 23:28N 29°33' W 090°42'0 0.0
2018-May-10 22:58N 29°33' W 090°42'0 0.0
2018-May-10 22:28N 29°33' W 090°42'0 1.1
2018-May-10 22:00N 29°33' W 090°42'0 0.0
2018-May-10 21:30N 29°33' W 090°42'0 0.0
2018-May-10 21:00N 29°33' W 090°42'0 0.0
2018-May-10 20:31N 29°33' W 090°42'0 1.0
2018-May-10 20:00N 29°34' W 090°42'1 1.8
2018-May-10 19:29N 29°34' W 090°43'0 0.0
2018-May-10 18:59N 29°34' W 090°43'0 0.0
2018-May-10 18:29N 29°34' W 090°43'0 0.0
2018-May-10 17:59N 29°34' W 090°43'0 0.0
2018-May-10 17:29N 29°34' W 090°43'0 0.0
2018-May-10 16:59N 29°34' W 090°43'0 0.0
2018-May-10 16:23N 29°34' W 090°43'0 0.0
2018-May-10 15:59N 29°34' W 090°43'0 0.0
2018-May-10 15:29N 29°34' W 090°43'0 0.0
2018-May-10 14:59N 29°34' W 090°43'0 0.0
2018-May-10 14:29N 29°34' W 090°43'0 0.0
2018-May-10 13:59N 29°34' W 090°43'0 0.0
2018-May-10 13:29N 29°34' W 090°43'0 0.0
2018-May-10 12:59N 29°34' W 090°43'0 0.0
2018-May-10 12:29N 29°34' W 090°43'0 0.0
2018-May-10 11:59N 29°34' W 090°43'0 0.0
2018-May-10 11:29N 29°34' W 090°43'0 0.0
2018-May-10 10:59N 29°34' W 090°43'0 0.0
2018-May-10 10:29N 29°34' W 090°43'0 0.0
2018-May-10 09:56N 29°34' W 090°43'0 0.0
2018-May-10 09:29N 29°34' W 090°43'0 0.0
2018-May-10 08:59N 29°34' W 090°43'0 0.0
2018-May-10 08:29N 29°34' W 090°43'0 0.0
2018-May-10 07:59N 29°34' W 090°43'0 0.0
2018-May-10 07:29N 29°34' W 090°43'0 0.0
2018-May-10 06:59N 29°34' W 090°43'0 0.0
2018-May-10 06:29N 29°34' W 090°43'0 0.0
2018-May-10 05:59N 29°34' W 090°43'0 0.0
2018-May-10 05:29N 29°34' W 090°43'0 0.0
2018-May-10 04:59N 29°34' W 090°43'0 0.0
2018-May-10 04:29N 29°34' W 090°43'0 0.0
2018-May-10 03:59N 29°34' W 090°43'0 0.0
2018-May-10 03:29N 29°34' W 090°43'0 0.0
2018-May-10 02:59N 29°34' W 090°43'0 0.0
2018-May-10 02:29N 29°34' W 090°43'0 0.0
2018-May-10 01:59N 29°34' W 090°43'0 0.0
2018-May-10 01:29N 29°34' W 090°43'0 0.3
2018-May-10 01:00N 29°34' W 090°43'4 7.2
2018-May-10 00:30N 29°32' W 090°47'1 0.1
2018-May-09 16:08N 29°32' W 090°48'1 7.3
2018-May-09 15:59N 29°32' W 090°47'3 6.2
2018-May-09 15:30N 29°34' W 090°44'1 1.8
2018-May-09 14:59N 29°34' W 090°43'0 0.0
2018-May-09 14:29N 29°34' W 090°43'0 0.0
2018-May-09 13:59N 29°34' W 090°43'1 1.4
2018-May-09 13:30N 29°34' W 090°43'3 5.5
2018-May-09 13:00N 29°31' W 090°43'3 6.0
2018-May-09 12:30N 29°28' W 090°43'3 6.0
2018-May-09 11:57N 29°25' W 090°44'2 0.2
2018-May-09 01:01N 29°23' W 090°44'0 3.7
2018-May-09 00:58N 29°23' W 090°44'4 8.9
2018-May-09 00:30N 29°27' W 090°43'4 9.1
2018-May-09 00:00N 29°32' W 090°42'4 7.2
2018-May-08 23:30N 29°35' W 090°43'2 3.7
2018-May-08 22:59N 29°36' W 090°41'3 6.7
2018-May-08 22:30N 29°35' W 090°38'2 1.1
2018-May-08 21:03N 29°35' W 090°36'0 5.6
2018-May-08 21:00N 29°35' W 090°36'3 6.3
2018-May-08 20:30N 29°36' W 090°39'1 1.7
2018-May-08 20:00N 29°36' W 090°40'0 0.0
2018-May-08 19:30N 29°36' W 090°40'0 0.0
2018-May-08 18:24N 29°36' W 090°40'0 0.0
2018-May-08 18:00N 29°36' W 090°40'0 0.0
2018-May-08 17:30N 29°36' W 090°40'0 0.0
2018-May-08 17:00N 29°36' W 090°40'0 0.0
2018-May-08 16:30N 29°36' W 090°40'0 0.0
2018-May-08 16:00N 29°36' W 090°40'0 0.0
2018-May-08 15:30N 29°36' W 090°40'0 0.0
2018-May-08 14:56N 29°36' W 090°40'0 0.0
2018-May-08 14:29N 29°36' W 090°40'1 3.1
2018-May-08 14:00N 29°37' W 090°42'3 5.9
2018-May-08 13:30N 29°34' W 090°43'0 0.7
2018-May-08 13:00N 29°34' W 090°43'0 1.0
2018-May-08 12:30N 29°34' W 090°42'1 1.2
2018-May-08 12:00N 29°33' W 090°42'2 5.0
2018-May-08 11:30N 29°31' W 090°43'3 5.0
2018-May-08 11:00N 29°28' W 090°43'2 4.7
2018-May-08 10:30N 29°26' W 090°43'3 5.1
2018-May-08 10:00N 29°24' W 090°44'2 5.0
2018-May-08 09:30N 29°21' W 090°44'2 4.2
2018-May-08 09:00N 29°19' W 090°43'2 4.3
2018-May-08 08:29N 29°17' W 090°42'2 5.0
2018-May-08 08:00N 29°15' W 090°41'  
Track history (hours):
 
Tides and Currents Weather Stations Pressure Air Temp Water Temp Dewpoint Dewpoint Depression Visibility Wind Speed Wind Dir Waves Ship Positions

Delta Buck

Owner: Crosby Marine Transportation, Golden Meadow, LA. More information available from US FCC via Universal Licensing System and Coast Guard Vessel Documentation Center.

Last reported at 2018-May-18 05:32 UTC. Time now 2018-May-22 02:09 UTC.
Position N 29°34' W 090°31'.

Length 20 m.

Type: Towing. MMSI: 367498680.

Date/timePositionNaut miles runAvg speedWind from/ knotsBaromVisibWave heightAir tempDewpointWater temp
2018-May-18 05:32N 29°34' W 090°31'1 8.1
2018-May-18 05:27N 29°34' W 090°32'4 7.7
2018-May-18 05:00N 29°35' W 090°35'3 5.9
2018-May-18 04:25N 29°36' W 090°39'1 2.5
2018-May-18 04:00N 29°36' W 090°40'0 0.0
2018-May-18 03:30N 29°36' W 090°40'0 0.2
2018-May-18 03:00N 29°36' W 090°40'2 4.1
2018-May-18 02:27N 29°35' W 090°43'3 6.4
2018-May-18 02:00N 29°33' W 090°45'4 8.0
2018-May-18 01:30N 29°32' W 090°50'  
2018-May-14 23:22N 29°32' W 090°50'3 7.6
2018-May-14 23:00N 29°32' W 090°47'3 6.4
2018-May-14 22:31N 29°34' W 090°44'3 5.5
2018-May-14 22:01N 29°37' W 090°43'2 4.0
2018-May-14 21:30N 29°36' W 090°40'2 4.5
2018-May-14 21:00N 29°35' W 090°38'2 0.7
2018-May-14 18:11N 29°35' W 090°36'1 4.4
2018-May-14 18:00N 29°35' W 090°36'4 7.1
2018-May-14 17:30N 29°36' W 090°40'0 0.2
2018-May-14 17:00N 29°36' W 090°40'0 0.0
2018-May-14 16:30N 29°36' W 090°40'0 0.0
2018-May-14 15:57N 29°36' W 090°40'0 0.0
2018-May-14 15:30N 29°36' W 090°40'0 0.0
2018-May-14 15:00N 29°36' W 090°40'0 0.0
2018-May-14 14:30N 29°36' W 090°40'3 5.2
2018-May-14 14:00N 29°35' W 090°38'2 3.1
2018-May-14 13:30N 29°35' W 090°36'0 0.2
2018-May-14 13:00N 29°35' W 090°36'0 0.2
2018-May-14 12:30N 29°35' W 090°36'0 0.4
2018-May-14 11:46N 29°35' W 090°36'0 0.0
2018-May-14 11:20N 29°35' W 090°36'0 0.0
2018-May-14 10:58N 29°35' W 090°36'0 0.0
2018-May-14 10:28N 29°35' W 090°36'0 0.0
2018-May-14 10:00N 29°35' W 090°36'0 0.0
2018-May-14 09:29N 29°35' W 090°36'0 0.0
2018-May-14 09:00N 29°35' W 090°36'0 0.0
2018-May-14 06:48N 29°35' W 090°36'0 0.0
2018-May-14 06:27N 29°35' W 090°36'0 0.0
2018-May-14 05:58N 29°35' W 090°36'0 0.0
2018-May-14 05:30N 29°35' W 090°36'0 0.0
2018-May-14 04:58N 29°35' W 090°36'0 0.0
2018-May-14 04:12N 29°35' W 090°36'0 0.0
2018-May-14 00:53N 29°35' W 090°36'0 0.0
2018-May-13 21:15N 29°35' W 090°36'1 3.9
2018-May-13 21:00N 29°35' W 090°37'3 5.5
2018-May-13 20:27N 29°36' W 090°40'0 1.0
2018-May-13 20:00N 29°36' W 090°40'0 0.0
2018-May-13 19:30N 29°36' W 090°40'0 0.0
2018-May-13 19:00N 29°36' W 090°40'0 0.0
2018-May-13 18:30N 29°36' W 090°40'0 0.0
2018-May-13 17:57N 29°36' W 090°40'0 0.0
2018-May-13 17:30N 29°36' W 090°40'0 0.0
2018-May-13 17:00N 29°36' W 090°40'0 0.0
2018-May-13 16:30N 29°36' W 090°40'0 0.0
2018-May-13 16:00N 29°36' W 090°40'0 0.0
2018-May-13 15:30N 29°36' W 090°40'0 0.0
2018-May-13 15:00N 29°36' W 090°40'0 0.0
2018-May-13 14:30N 29°36' W 090°40'0 0.0
2018-May-13 14:00N 29°36' W 090°40'0 0.0
2018-May-13 13:30N 29°36' W 090°40'0 0.0
2018-May-13 13:00N 29°36' W 090°40'0 0.0
2018-May-13 12:18N 29°36' W 090°40'0 0.0
2018-May-13 12:00N 29°36' W 090°40'0 0.0
2018-May-13 11:30N 29°36' W 090°40'0 0.0
2018-May-13 11:00N 29°36' W 090°40'0 0.0
2018-May-13 10:30N 29°36' W 090°40'0 0.0
2018-May-13 10:00N 29°36' W 090°40'0 0.4
2018-May-13 09:30N 29°36' W 090°40'1 2.9
2018-May-13 09:00N 29°37' W 090°42'3 6.4
2018-May-13 08:30N 29°34' W 090°44'4 7.7
2018-May-13 08:00N 29°32' W 090°47'2 0.3
2018-May-13 01:03N 29°32' W 090°50'1 5.0
2018-May-13 00:49N 29°32' W 090°49'2 4.9
2018-May-13 00:28N 29°32' W 090°47'2 4.4
2018-May-13 00:00N 29°34' W 090°45'2 3.2
2018-May-12 23:30N 29°34' W 090°43'1 2.3
2018-May-12 23:00N 29°33' W 090°42'2 4.8
2018-May-12 22:30N 29°31' W 090°43'3 5.0
2018-May-12 21:58N 29°28' W 090°43'3 0.1
2018-May-11 13:37N 29°25' W 090°43'1 8.1
2018-May-11 13:30N 29°26' W 090°43'4 8.6
2018-May-11 13:00N 29°31' W 090°43'2 4.0
2018-May-11 12:28N 29°33' W 090°42'0 0.0
2018-May-11 11:58N 29°33' W 090°42'0 0.0
2018-May-11 11:28N 29°33' W 090°42'0 0.0
2018-May-11 10:58N 29°33' W 090°42'0 0.0
2018-May-11 10:28N 29°33' W 090°42'0 0.0
2018-May-11 09:58N 29°33' W 090°42'0 0.0
2018-May-11 09:25N 29°33' W 090°42'0 0.0
2018-May-11 08:58N 29°33' W 090°42'0 0.0
2018-May-11 08:25N 29°33' W 090°42'0 0.0
2018-May-11 07:58N 29°33' W 090°42'0 0.0
2018-May-11 07:28N 29°33' W 090°42'0 0.0
2018-May-11 06:58N 29°33' W 090°42'0 0.0
2018-May-11 06:28N 29°33' W 090°42'0 0.0
2018-May-11 05:55N 29°33' W 090°42'0 0.0
2018-May-11 05:28N 29°33' W 090°42'0 0.0
2018-May-11 04:58N 29°33' W 090°42'0 0.0
2018-May-11 04:28N 29°33' W 090°42'0 0.0
2018-May-11 03:58N 29°33' W 090°42'0 0.0
2018-May-11 03:28N 29°33' W 090°42'0 0.0
2018-May-11 02:58N 29°33' W 090°42'0 0.0
2018-May-11 02:28N 29°33' W 090°42'0 0.0
2018-May-11 01:58N 29°33' W 090°42'0 0.0
2018-May-11 01:28N 29°33' W 090°42'0 0.0
2018-May-11 00:58N 29°33' W 090°42'0 0.0
2018-May-11 00:28N 29°33' W 090°42'0 0.0
2018-May-10 23:58N 29°33' W 090°42'0 0.0
2018-May-10 23:28N 29°33' W 090°42'0 0.0
2018-May-10 22:58N 29°33' W 090°42'0 0.0
2018-May-10 22:28N 29°33' W 090°42'0 1.1
2018-May-10 22:00N 29°33' W 090°42'0 0.0
2018-May-10 21:30N 29°33' W 090°42'0 0.0
2018-May-10 21:00N 29°33' W 090°42'0 0.0
2018-May-10 20:31N 29°33' W 090°42'0 1.0
2018-May-10 20:00N 29°34' W 090°42'1 1.8
2018-May-10 19:29N 29°34' W 090°43'0 0.0
2018-May-10 18:59N 29°34' W 090°43'0 0.0
2018-May-10 18:29N 29°34' W 090°43'0 0.0
2018-May-10 17:59N 29°34' W 090°43'0 0.0
2018-May-10 17:29N 29°34' W 090°43'0 0.0
2018-May-10 16:59N 29°34' W 090°43'0 0.0
2018-May-10 16:23N 29°34' W 090°43'0 0.0
2018-May-10 15:59N 29°34' W 090°43'0 0.0
2018-May-10 15:29N 29°34' W 090°43'0 0.0
2018-May-10 14:59N 29°34' W 090°43'0 0.0
2018-May-10 14:29N 29°34' W 090°43'0 0.0
2018-May-10 13:59N 29°34' W 090°43'0 0.0
2018-May-10 13:29N 29°34' W 090°43'0 0.0
2018-May-10 12:59N 29°34' W 090°43'0 0.0
2018-May-10 12:29N 29°34' W 090°43'0 0.0
2018-May-10 11:59N 29°34' W 090°43'0 0.0
2018-May-10 11:29N 29°34' W 090°43'0 0.0
2018-May-10 10:59N 29°34' W 090°43'0 0.0
2018-May-10 10:29N 29°34' W 090°43'0 0.0
2018-May-10 09:56N 29°34' W 090°43'0 0.0
2018-May-10 09:29N 29°34' W 090°43'0 0.0
2018-May-10 08:59N 29°34' W 090°43'0 0.0
2018-May-10 08:29N 29°34' W 090°43'0 0.0
2018-May-10 07:59N 29°34' W 090°43'0 0.0
2018-May-10 07:29N 29°34' W 090°43'0 0.0
2018-May-10 06:59N 29°34' W 090°43'0 0.0
2018-May-10 06:29N 29°34' W 090°43'0 0.0
2018-May-10 05:59N 29°34' W 090°43'0 0.0
2018-May-10 05:29N 29°34' W 090°43'0 0.0
2018-May-10 04:59N 29°34' W 090°43'0 0.0
2018-May-10 04:29N 29°34' W 090°43'0 0.0
2018-May-10 03:59N 29°34' W 090°43'0 0.0
2018-May-10 03:29N 29°34' W 090°43'0 0.0
2018-May-10 02:59N 29°34' W 090°43'0 0.0
2018-May-10 02:29N 29°34' W 090°43'0 0.0
2018-May-10 01:59N 29°34' W 090°43'0 0.0
2018-May-10 01:29N 29°34' W 090°43'0 0.3
2018-May-10 01:00N 29°34' W 090°43'4 7.2
2018-May-10 00:30N 29°32' W 090°47'1 0.1
2018-May-09 16:08N 29°32' W 090°48'1 7.3
2018-May-09 15:59N 29°32' W 090°47'3 6.2
2018-May-09 15:30N 29°34' W 090°44'1 1.8
2018-May-09 14:59N 29°34' W 090°43'0 0.0
2018-May-09 14:29N 29°34' W 090°43'0 0.0
2018-May-09 13:59N 29°34' W 090°43'1 1.4
2018-May-09 13:30N 29°34' W 090°43'3 5.5
2018-May-09 13:00N 29°31' W 090°43'3 6.0
2018-May-09 12:30N 29°28' W 090°43'3 6.0
2018-May-09 11:57N 29°25' W 090°44'2 0.2
2018-May-09 01:01N 29°23' W 090°44'0 3.7
2018-May-09 00:58N 29°23' W 090°44'4 8.9
2018-May-09 00:30N 29°27' W 090°43'4 9.1
2018-May-09 00:00N 29°32' W 090°42'4 7.2
2018-May-08 23:30N 29°35' W 090°43'2 3.7
2018-May-08 22:59N 29°36' W 090°41'3 6.7
2018-May-08 22:30N 29°35' W 090°38'2 1.1
2018-May-08 21:03N 29°35' W 090°36'0 5.6
2018-May-08 21:00N 29°35' W 090°36'3 6.3
2018-May-08 20:30N 29°36' W 090°39'1 1.7
2018-May-08 20:00N 29°36' W 090°40'0 0.0
2018-May-08 19:30N 29°36' W 090°40'0 0.0
2018-May-08 18:24N 29°36' W 090°40'0 0.0
2018-May-08 18:00N 29°36' W 090°40'0 0.0
2018-May-08 17:30N 29°36' W 090°40'0 0.0
2018-May-08 17:00N 29°36' W 090°40'0 0.0
2018-May-08 16:30N 29°36' W 090°40'0 0.0
2018-May-08 16:00N 29°36' W 090°40'0 0.0
2018-May-08 15:30N 29°36' W 090°40'0 0.0
2018-May-08 14:56N 29°36' W 090°40'0 0.0
2018-May-08 14:29N 29°36' W 090°40'1 3.1
2018-May-08 14:00N 29°37' W 090°42'3 5.9
2018-May-08 13:30N 29°34' W 090°43'0 0.7
2018-May-08 13:00N 29°34' W 090°43'0 1.0
2018-May-08 12:30N 29°34' W 090°42'1 1.2
2018-May-08 12:00N 29°33' W 090°42'2 5.0
2018-May-08 11:30N 29°31' W 090°43'3 5.0
2018-May-08 11:00N 29°28' W 090°43'2 4.7
2018-May-08 10:30N 29°26' W 090°43'3 5.1
2018-May-08 10:00N 29°24' W 090°44'2 5.0
2018-May-08 09:30N 29°21' W 090°44'2 4.2
2018-May-08 09:00N 29°19' W 090°43'2 4.3
2018-May-08 08:29N 29°17' W 090°42'2 5.0
2018-May-08 08:00N 29°15' W 090°41'  

Dump ship's entire track history